BOX117X EKCH-LEPA
Flight info
| Callsign | BOX117X |
|---|---|
| Flight time | N/A |
| Altitude | 36000 |
| Route | NEXEN T503 GIMRU DCT MICOS DCT WRB DCT XAROL DCT BOMBI DCT GIGET DCT ABUKA DCT KRH DCT NATOR/N0464F350 DCT LUTIX DCT BENOT DCT NEMOS DCT GEVEA DCT INCUS DCT BALSI DCT RETNO DCT TUPOX DCT MTG DCT DIVKO DCT VATIR N852 VERSO L129 LUNIK |
| Aircraft | B77L/H-SDE1E2E3FGHIJ2J3J4J5M1RWXY/LB1D1 |
Departure
| Time | 2026-04-30 13:09 |
|---|---|
| Airport | Copenhagen Kastrup Airport (EKCH) |
Arrival
| Time | N/A |
|---|---|
| Airport | Palma de Mallorca Airport (LEPA) |
| Time | Latitude | Longitude | Altitude | Speed | Heading |
|---|---|---|---|---|---|
| 2026-04-30 12:53 | 55.62064 | 12.67066 | 28 ft | 0 kts | 79° |
| 2026-04-30 12:58 | 55.62061 | 12.67046 | 27 ft | 3 kts | 79° |
| 2026-04-30 12:58 | 55.62052 | 12.67007 | 26 ft | 4 kts | 59° |
| 2026-04-30 12:58 | 55.62036 | 12.66967 | 27 ft | 4 kts | 61° |
| 2026-04-30 12:58 | 55.62031 | 12.66926 | 28 ft | 3 kts | 140° |
| 2026-04-30 12:59 | 55.62040 | 12.66914 | 27 ft | 0 kts | 165° |
| 2026-04-30 13:00 | 55.62033 | 12.66917 | 28 ft | 5 kts | 166° |
| 2026-04-30 13:01 | 55.61949 | 12.66948 | 28 ft | 14 kts | 171° |
| 2026-04-30 13:01 | 55.61883 | 12.66850 | 28 ft | 14 kts | 259° |
| 2026-04-30 13:01 | 55.61864 | 12.66675 | 28 ft | 15 kts | 259° |
| 2026-04-30 13:01 | 55.61846 | 12.66494 | 28 ft | 15 kts | 256° |
| 2026-04-30 13:02 | 55.61760 | 12.66396 | 28 ft | 15 kts | 198° |
| 2026-04-30 13:02 | 55.61666 | 12.66279 | 28 ft | 22 kts | 233° |
| 2026-04-30 13:02 | 55.61668 | 12.65947 | 30 ft | 35 kts | 297° |
| 2026-04-30 13:02 | 55.61801 | 12.65579 | 29 ft | 35 kts | 303° |
| 2026-04-30 13:03 | 55.61931 | 12.65228 | 27 ft | 33 kts | 303° |
| 2026-04-30 13:03 | 55.62004 | 12.64962 | 28 ft | 20 kts | 259° |
| 2026-04-30 13:03 | 55.61953 | 12.64880 | 28 ft | 14 kts | 211° |
| 2026-04-30 13:03 | 55.61777 | 12.64683 | 28 ft | 41 kts | 215° |
| 2026-04-30 13:04 | 55.61542 | 12.64410 | 28 ft | 39 kts | 212° |
| 2026-04-30 13:04 | 55.61317 | 12.64152 | 28 ft | 38 kts | 214° |
| 2026-04-30 13:04 | 55.61102 | 12.63905 | 28 ft | 36 kts | 215° |
| 2026-04-30 13:04 | 55.60944 | 12.63721 | 28 ft | 10 kts | 213° |
| 2026-04-30 13:05 | 55.60883 | 12.63649 | 28 ft | 11 kts | 211° |
| 2026-04-30 13:05 | 55.60821 | 12.63582 | 28 ft | 11 kts | 211° |
| 2026-04-30 13:05 | 55.60760 | 12.63514 | 28 ft | 11 kts | 213° |
| 2026-04-30 13:06 | 55.60640 | 12.63365 | 28 ft | 11 kts | 219° |
| 2026-04-30 13:06 | 55.60582 | 12.63276 | 27 ft | 14 kts | 221° |
| 2026-04-30 13:06 | 55.60463 | 12.63123 | 28 ft | 23 kts | 189° |
| 2026-04-30 13:06 | 55.60349 | 12.63301 | 30 ft | 23 kts | 102° |
| 2026-04-30 13:07 | 55.60394 | 12.63430 | 30 ft | 0 kts | 41° |
| 2026-04-30 13:07 | 55.60398 | 12.63436 | 29 ft | 2 kts | 41° |
| 2026-04-30 13:07 | 55.60409 | 12.63453 | 29 ft | 0 kts | 41° |
| 2026-04-30 13:08 | 55.60410 | 12.63455 | 29 ft | 0 kts | 41° |
| 2026-04-30 13:08 | 55.60509 | 12.63608 | 29 ft | 64 kts | 41° |
| 2026-04-30 13:08 | 55.61123 | 12.64556 | 38 ft | 167 kts | 42° |
| 2026-04-30 13:09 | 55.62026 | 12.65940 | 1289 ft | 160 kts | 36° |
| 2026-04-30 13:09 | 55.62935 | 12.67328 | 2568 ft | 186 kts | 37° |
| 2026-04-30 13:09 | 55.63977 | 12.68939 | 3036 ft | 214 kts | 38° |
| 2026-04-30 13:09 | 55.65180 | 12.70805 | 3377 ft | 245 kts | 38° |
| 2026-04-30 13:10 | 55.66503 | 12.72807 | 4228 ft | 252 kts | 37° |
| 2026-04-30 13:10 | 55.67668 | 12.75147 | 5104 ft | 261 kts | 63° |
| 2026-04-30 13:10 | 55.67951 | 12.78342 | 6119 ft | 269 kts | 94° |
| 2026-04-30 13:10 | 55.67357 | 12.81502 | 7173 ft | 275 kts | 116° |
| 2026-04-30 13:11 | 55.66131 | 12.84149 | 8071 ft | 283 kts | 134° |
| 2026-04-30 13:11 | 55.64652 | 12.86463 | 8884 ft | 289 kts | 135° |
| 2026-04-30 13:11 | 55.63110 | 12.88770 | 9853 ft | 291 kts | 142° |
| 2026-04-30 13:11 | 55.61206 | 12.90156 | 10655 ft | 305 kts | 169° |
| 2026-04-30 13:12 | 55.59030 | 12.89899 | 11146 ft | 330 kts | 197° |
| 2026-04-30 13:12 | 55.56968 | 12.87785 | 11356 ft | 358 kts | 223° |
| 2026-04-30 13:12 | 55.55208 | 12.84444 | 11612 ft | 384 kts | 230° |
| 2026-04-30 13:13 | 55.51541 | 12.77154 | 13009 ft | 407 kts | 229° |
| 2026-04-30 13:13 | 55.49687 | 12.73319 | 13852 ft | 414 kts | 230° |
| 2026-04-30 13:13 | 55.45934 | 12.65417 | 15481 ft | 425 kts | 230° |
| 2026-04-30 13:14 | 55.44024 | 12.61399 | 16305 ft | 430 kts | 230° |
| 2026-04-30 13:14 | 55.42093 | 12.57348 | 17096 ft | 435 kts | 230° |
| 2026-04-30 13:14 | 55.38165 | 12.49149 | 18633 ft | 446 kts | 230° |
| 2026-04-30 13:15 | 55.36150 | 12.44956 | 19320 ft | 451 kts | 230° |
| 2026-04-30 13:15 | 55.32071 | 12.36493 | 20810 ft | 456 kts | 231° |
| 2026-04-30 13:15 | 55.30006 | 12.32219 | 21532 ft | 460 kts | 231° |
| 2026-04-30 13:16 | 55.27926 | 12.27920 | 22228 ft | 464 kts | 231° |
| 2026-04-30 13:16 | 55.25830 | 12.23593 | 22919 ft | 467 kts | 231° |
| 2026-04-30 13:16 | 55.23714 | 12.19238 | 23606 ft | 470 kts | 231° |
| 2026-04-30 13:17 | 55.19215 | 12.10895 | 24950 ft | 475 kts | 222° |
| 2026-04-30 13:17 | 55.16601 | 12.07284 | 25476 ft | 480 kts | 217° |
| 2026-04-30 13:17 | 55.12050 | 12.01569 | 26315 ft | 487 kts | 216° |
| 2026-04-30 13:18 | 55.08460 | 11.97073 | 27077 ft | 490 kts | 217° |
| 2026-04-30 13:18 | 55.02940 | 11.90096 | 28177 ft | 496 kts | 217° |
| 2026-04-30 13:18 | 55.00138 | 11.86538 | 28685 ft | 500 kts | 217° |
| 2026-04-30 13:19 | 54.97323 | 11.82964 | 29202 ft | 503 kts | 217° |
| 2026-04-30 13:19 | 54.94489 | 11.79372 | 29711 ft | 506 kts | 217° |
| 2026-04-30 13:19 | 54.92561 | 11.76932 | 29985 ft | 508 kts | 217° |
| 2026-04-30 13:19 | 54.89689 | 11.73305 | 30402 ft | 512 kts | 217° |
| 2026-04-30 13:20 | 54.86800 | 11.69665 | 30870 ft | 512 kts | 217° |
| 2026-04-30 13:20 | 54.83919 | 11.66041 | 31451 ft | 510 kts | 217° |
| 2026-04-30 13:20 | 54.81059 | 11.62451 | 32067 ft | 506 kts | 217° |
| 2026-04-30 13:20 | 54.78206 | 11.58885 | 32630 ft | 504 kts | 217° |
| 2026-04-30 13:21 | 54.75401 | 11.55395 | 33119 ft | 503 kts | 217° |
| 2026-04-30 13:21 | 54.72562 | 11.51871 | 33620 ft | 502 kts | 217° |
| 2026-04-30 13:21 | 54.69722 | 11.48350 | 34089 ft | 501 kts | 216° |
| 2026-04-30 13:22 | 54.64060 | 11.41343 | 34947 ft | 499 kts | 216° |
| 2026-04-30 13:22 | 54.61243 | 11.37862 | 35373 ft | 497 kts | 216° |
| 2026-04-30 13:22 | 54.55656 | 11.30980 | 36354 ft | 489 kts | 217° |
| 2026-04-30 13:23 | 54.52876 | 11.27572 | 36504 ft | 493 kts | 216° |
| 2026-04-30 13:23 | 54.47267 | 11.20727 | 36484 ft | 494 kts | 216° |
| 2026-04-30 13:24 | 54.36117 | 11.07174 | 36490 ft | 488 kts | 216° |
| 2026-04-30 13:25 | 54.24436 | 10.95862 | 36490 ft | 489 kts | 202° |
| 2026-04-30 13:26 | 54.08710 | 10.84724 | 36486 ft | 492 kts | 203° |
| 2026-04-30 13:28 | 53.92880 | 10.73408 | 36484 ft | 495 kts | 202° |
| 2026-04-30 13:28 | 53.83346 | 10.66638 | 36482 ft | 495 kts | 202° |
| 2026-04-30 13:29 | 53.70665 | 10.57687 | 36480 ft | 495 kts | 202° |
| 2026-04-30 13:31 | 53.54776 | 10.46555 | 36476 ft | 494 kts | 202° |
| 2026-04-30 13:32 | 53.38878 | 10.35506 | 36468 ft | 494 kts | 202° |
| 2026-04-30 13:33 | 53.26165 | 10.26737 | 36461 ft | 494 kts | 202° |
| 2026-04-30 13:34 | 53.16669 | 10.20222 | 36462 ft | 494 kts | 201° |
| 2026-04-30 13:35 | 53.03952 | 10.11546 | 36454 ft | 493 kts | 201° |
| 2026-04-30 13:36 | 52.91248 | 10.02935 | 36456 ft | 493 kts | 201° |
| 2026-04-30 13:36 | 52.81829 | 9.96585 | 36461 ft | 493 kts | 201° |
| 2026-04-30 13:37 | 52.72289 | 9.90184 | 36460 ft | 493 kts | 201° |
| 2026-04-30 13:38 | 52.62772 | 9.83830 | 36456 ft | 494 kts | 201° |
| 2026-04-30 13:39 | 52.50009 | 9.75354 | 36455 ft | 495 kts | 201° |
| 2026-04-30 13:40 | 52.40420 | 9.69021 | 36455 ft | 495 kts | 201° |
| 2026-04-30 13:40 | 52.34026 | 9.64814 | 36457 ft | 496 kts | 200° |
| 2026-04-30 13:41 | 52.27617 | 9.60611 | 36461 ft | 496 kts | 200° |
| 2026-04-30 13:41 | 52.21245 | 9.56445 | 36444 ft | 497 kts | 200° |
| 2026-04-30 13:42 | 52.14828 | 9.52263 | 36451 ft | 497 kts | 200° |
| 2026-04-30 13:42 | 52.05194 | 9.46008 | 36446 ft | 497 kts | 200° |
| 2026-04-30 13:43 | 51.98764 | 9.41849 | 36453 ft | 497 kts | 200° |
| 2026-04-30 13:43 | 51.92327 | 9.37700 | 36436 ft | 497 kts | 200° |
| 2026-04-30 13:44 | 51.85894 | 9.33565 | 36436 ft | 497 kts | 200° |
| 2026-04-30 13:44 | 51.79454 | 9.29438 | 36440 ft | 497 kts | 200° |
| 2026-04-30 13:45 | 51.69853 | 9.23309 | 36422 ft | 497 kts | 200° |
| 2026-04-30 13:46 | 51.63415 | 9.19215 | 36427 ft | 497 kts | 200° |
| 2026-04-30 13:46 | 51.56982 | 9.15135 | 36437 ft | 497 kts | 200° |
| 2026-04-30 13:47 | 51.50514 | 9.11187 | 36429 ft | 496 kts | 195° |
| 2026-04-30 13:47 | 51.43800 | 9.08669 | 36429 ft | 494 kts | 188° |
| 2026-04-30 13:48 | 51.37049 | 9.06494 | 36420 ft | 495 kts | 189° |
| 2026-04-30 13:48 | 51.30332 | 9.04300 | 36432 ft | 494 kts | 186° |
| 2026-04-30 13:49 | 51.23512 | 9.02898 | 36434 ft | 494 kts | 184° |
| 2026-04-30 13:49 | 51.16680 | 9.01602 | 36427 ft | 494 kts | 184° |
| 2026-04-30 13:50 | 51.09836 | 9.00273 | 36423 ft | 495 kts | 184° |
| 2026-04-30 13:50 | 50.99713 | 8.98266 | 36411 ft | 494 kts | 184° |
| 2026-04-30 13:51 | 50.92877 | 8.96909 | 36408 ft | 494 kts | 184° |
| 2026-04-30 13:51 | 50.86102 | 8.95571 | 36398 ft | 494 kts | 184° |
| 2026-04-30 13:52 | 50.79283 | 8.94230 | 36383 ft | 494 kts | 184° |
| 2026-04-30 13:52 | 50.72465 | 8.92893 | 36389 ft | 494 kts | 184° |
| 2026-04-30 13:53 | 50.65646 | 8.91560 | 36383 ft | 494 kts | 184° |
| 2026-04-30 13:53 | 50.58824 | 8.90229 | 36373 ft | 493 kts | 184° |
| 2026-04-30 13:54 | 50.52007 | 8.88904 | 36381 ft | 493 kts | 184° |
| 2026-04-30 13:54 | 50.45190 | 8.87582 | 36384 ft | 493 kts | 184° |
| 2026-04-30 13:55 | 50.38378 | 8.86265 | 36374 ft | 493 kts | 184° |
| 2026-04-30 13:55 | 50.31557 | 8.84951 | 36371 ft | 493 kts | 184° |
| 2026-04-30 13:56 | 50.24743 | 8.83641 | 36372 ft | 493 kts | 184° |
| 2026-04-30 13:56 | 50.17933 | 8.82336 | 36370 ft | 493 kts | 184° |
| 2026-04-30 13:57 | 50.11121 | 8.81034 | 36375 ft | 493 kts | 184° |
| 2026-04-30 13:57 | 50.04317 | 8.79732 | 36350 ft | 493 kts | 184° |
| 2026-04-30 13:58 | 49.94140 | 8.77634 | 36351 ft | 493 kts | 185° |
| 2026-04-30 13:59 | 49.87345 | 8.76224 | 36347 ft | 493 kts | 185° |
| 2026-04-30 13:59 | 49.80536 | 8.74828 | 36345 ft | 493 kts | 185° |
| 2026-04-30 14:00 | 49.73733 | 8.73441 | 36333 ft | 493 kts | 185° |
| 2026-04-30 14:00 | 49.63532 | 8.71362 | 36339 ft | 493 kts | 185° |
| 2026-04-30 14:01 | 49.56736 | 8.69978 | 36348 ft | 493 kts | 185° |
| 2026-04-30 14:01 | 49.49931 | 8.68595 | 36343 ft | 493 kts | 185° |
| 2026-04-30 14:02 | 49.43133 | 8.67218 | 36342 ft | 493 kts | 185° |
| 2026-04-30 14:02 | 49.36331 | 8.65840 | 36342 ft | 493 kts | 185° |
| 2026-04-30 14:03 | 49.29528 | 8.64465 | 36329 ft | 493 kts | 184° |
| 2026-04-30 14:03 | 49.22737 | 8.63096 | 36317 ft | 492 kts | 184° |
| 2026-04-30 14:04 | 49.15941 | 8.61730 | 36292 ft | 492 kts | 185° |
| 2026-04-30 14:04 | 49.10294 | 8.60598 | 36279 ft | 492 kts | 185° |
| 2026-04-30 14:05 | 49.03499 | 8.59238 | 36281 ft | 492 kts | 185° |
| 2026-04-30 14:05 | 48.96745 | 8.57664 | 36277 ft | 493 kts | 189° |
| 2026-04-30 14:06 | 48.86748 | 8.54375 | 36264 ft | 493 kts | 189° |
| 2026-04-30 14:07 | 48.76683 | 8.51083 | 36270 ft | 493 kts | 189° |
| 2026-04-30 14:08 | 48.66625 | 8.47853 | 36260 ft | 492 kts | 189° |
| 2026-04-30 14:08 | 48.56620 | 8.44655 | 36259 ft | 491 kts | 189° |
| 2026-04-30 14:09 | 48.49925 | 8.42519 | 36252 ft | 491 kts | 189° |
| 2026-04-30 14:10 | 48.39881 | 8.39326 | 36251 ft | 491 kts | 189° |
| 2026-04-30 14:10 | 48.33191 | 8.37206 | 36250 ft | 491 kts | 189° |
| 2026-04-30 14:11 | 48.26509 | 8.35095 | 36251 ft | 491 kts | 189° |
| 2026-04-30 14:11 | 48.19841 | 8.32790 | 36244 ft | 493 kts | 195° |
| 2026-04-30 14:12 | 48.13516 | 8.28768 | 36250 ft | 496 kts | 207° |
| 2026-04-30 14:12 | 48.07699 | 8.23308 | 36245 ft | 496 kts | 212° |
| 2026-04-30 14:13 | 48.01920 | 8.17634 | 36235 ft | 496 kts | 212° |
| 2026-04-30 14:13 | 47.96125 | 8.12014 | 36229 ft | 496 kts | 212° |
| 2026-04-30 14:14 | 47.90325 | 8.06456 | 36231 ft | 495 kts | 212° |
| 2026-04-30 14:14 | 47.84518 | 8.00920 | 36218 ft | 495 kts | 212° |
| 2026-04-30 14:15 | 47.78864 | 7.95542 | 36221 ft | 494 kts | 212° |
| 2026-04-30 14:15 | 47.73079 | 7.90052 | 36200 ft | 493 kts | 212° |
| 2026-04-30 14:16 | 47.67300 | 7.84582 | 36190 ft | 492 kts | 212° |
| 2026-04-30 14:16 | 47.61526 | 7.79129 | 36189 ft | 492 kts | 212° |
| 2026-04-30 14:17 | 47.55757 | 7.73696 | 36188 ft | 492 kts | 212° |
| 2026-04-30 14:17 | 47.49981 | 7.68272 | 36193 ft | 491 kts | 212° |
| 2026-04-30 14:18 | 47.44208 | 7.62864 | 36179 ft | 491 kts | 212° |
| 2026-04-30 14:18 | 47.35542 | 7.54772 | 36182 ft | 491 kts | 212° |
| 2026-04-30 14:19 | 47.26870 | 7.46705 | 36184 ft | 491 kts | 212° |
| 2026-04-30 14:20 | 47.21093 | 7.41346 | 36182 ft | 491 kts | 213° |
| 2026-04-30 14:20 | 47.13400 | 7.31526 | 36185 ft | 489 kts | 230° |
| 2026-04-30 14:21 | 47.09206 | 7.23672 | 36168 ft | 489 kts | 233° |
| 2026-04-30 14:22 | 47.02895 | 7.11959 | 36200 ft | 488 kts | 232° |
| 2026-04-30 14:22 | 46.96485 | 7.00304 | 36191 ft | 496 kts | 232° |
| 2026-04-30 14:23 | 46.87143 | 6.85640 | 36186 ft | 502 kts | 219° |
| 2026-04-30 14:24 | 46.78930 | 6.76028 | 36186 ft | 506 kts | 219° |
| 2026-04-30 14:25 | 46.68169 | 6.63314 | 36170 ft | 493 kts | 219° |
| 2026-04-30 14:26 | 46.62486 | 6.57753 | 36176 ft | 493 kts | 206° |
| 2026-04-30 14:26 | 46.59365 | 6.55688 | 36176 ft | 493 kts | 201° |
| 2026-04-30 14:27 | 46.49514 | 6.51287 | 36170 ft | 494 kts | 196° |
| 2026-04-30 14:27 | 46.42898 | 6.48483 | 36165 ft | 496 kts | 196° |
| 2026-04-30 14:28 | 46.32964 | 6.44189 | 36163 ft | 497 kts | 197° |
| 2026-04-30 14:28 | 46.26339 | 6.41307 | 36157 ft | 497 kts | 197° |
| 2026-04-30 14:29 | 46.14210 | 6.36053 | 36150 ft | 496 kts | 197° |